createdAt,value
2018-03-07T00:00:33.041Z,98184.53
2018-03-07T00:01:39.289Z,98186.59
2018-03-07T00:02:45.718Z,98185.80
2018-03-07T00:03:51.884Z,98182.19
2018-03-07T00:04:58.053Z,98183.82
2018-03-07T00:06:05.229Z,98188.59
2018-03-07T00:07:11.385Z,98182.32
2018-03-07T00:08:17.639Z,98179.66
2018-03-07T00:09:23.834Z,98180.61
2018-03-07T00:10:30.084Z,98185.43
2018-03-07T00:11:36.104Z,98182.95
2018-03-07T00:12:42.280Z,98185.48
2018-03-07T00:13:48.528Z,98188.13
2018-03-07T00:14:54.745Z,98193.66
2018-03-07T00:16:00.689Z,98182.50
2018-03-07T00:17:06.923Z,98186.70
2018-03-07T00:18:13.130Z,98187.52
2018-03-07T00:19:19.294Z,98188.44
2018-03-07T00:20:25.500Z,98184.48
2018-03-07T00:21:31.628Z,98191.23
2018-03-07T00:22:37.829Z,98183.84
2018-03-07T00:23:43.766Z,98187.48
2018-03-07T00:24:49.972Z,98186.70
2018-03-07T00:25:56.129Z,98191.39
2018-03-07T00:27:02.274Z,98185.62
2018-03-07T00:28:08.467Z,98184.61
2018-03-07T00:29:14.685Z,98181.63
2018-03-07T00:30:20.889Z,98179.92
2018-03-07T00:31:27.176Z,98180.81
2018-03-07T00:32:33.692Z,98185.64
2018-03-07T00:33:39.951Z,98183.95
2018-03-07T00:34:47.131Z,98183.95
2018-03-07T00:35:53.341Z,98180.08
2018-03-07T00:36:59.514Z,98181.79
2018-03-07T00:38:05.731Z,98185.67
2018-03-07T00:39:11.922Z,98180.95
2018-03-07T00:40:17.742Z,98185.33
2018-03-07T00:41:23.940Z,98184.38
2018-03-07T00:42:30.118Z,98189.14
2018-03-07T00:43:36.349Z,98186.94
2018-03-07T00:44:42.533Z,98183.64
2018-03-07T00:45:48.926Z,98184.98
2018-03-07T00:46:55.146Z,98182.21
2018-03-07T00:48:01.352Z,98178.34
2018-03-07T00:49:07.514Z,98176.91
2018-03-07T00:50:13.731Z,98178.20
2018-03-07T00:51:20.733Z,98179.07
2018-03-07T00:52:26.868Z,98178.92
2018-03-07T00:53:33.037Z,98176.33
2018-03-07T00:54:39.178Z,98177.17
2018-03-07T00:55:45.409Z,98175.75
2018-03-07T00:56:51.656Z,98176.15
2018-03-07T00:57:57.850Z,98176.72
2018-03-07T00:59:03.715Z,98177.30
2018-03-07T01:00:10.617Z,98174.03
2018-03-07T01:01:17.356Z,98181.84
2018-03-07T01:02:23.489Z,98177.34
2018-03-07T01:03:29.399Z,98181.39
2018-03-07T01:04:35.621Z,98180.23
2018-03-07T01:05:41.832Z,98175.38
2018-03-07T01:06:47.770Z,98180.61
2018-03-07T01:07:53.960Z,98180.77
2018-03-07T01:09:00.191Z,98180.67
2018-03-07T01:10:06.336Z,98176.80
2018-03-07T01:11:12.545Z,98179.81
2018-03-07T01:12:18.699Z,98177.73
2018-03-07T01:13:24.858Z,98186.70
2018-03-07T01:14:31.031Z,98171.92
2018-03-07T01:15:38.072Z,98173.38
2018-03-07T01:16:44.231Z,98170.90
2018-03-07T01:17:50.429Z,98175.20
2018-03-07T01:18:56.600Z,98165.23
2018-03-07T01:20:02.776Z,98176.16
2018-03-07T01:21:09.028Z,98170.03
2018-03-07T01:22:15.541Z,98169.63
2018-03-07T01:23:21.693Z,98173.75
2018-03-07T01:24:27.857Z,98162.14
2018-03-07T01:25:34.096Z,98169.77
2018-03-07T01:26:40.253Z,98168.84
2018-03-07T01:27:46.473Z,98162.85
2018-03-07T01:28:52.671Z,98171.45
2018-03-07T01:29:58.852Z,98166.10
2018-03-07T01:31:05.107Z,98164.75
2018-03-07T01:32:11.282Z,98166.86
2018-03-07T01:33:17.494Z,98162.88
2018-03-07T01:34:23.683Z,98164.59
2018-03-07T01:35:29.843Z,98160.24
2018-03-07T01:36:35.983Z,98162.94
2018-03-07T01:37:42.160Z,98168.47
2018-03-07T01:38:48.402Z,98161.53
2018-03-07T01:39:54.562Z,98157.26
2018-03-07T01:41:00.568Z,98160.30
2018-03-07T01:42:06.777Z,98165.84
2018-03-07T01:43:12.951Z,98159.00
2018-03-07T01:44:19.127Z,98160.00
2018-03-07T01:45:25.271Z,98162.59
2018-03-07T01:46:31.424Z,98157.77
2018-03-07T01:47:37.639Z,98160.45
2018-03-07T01:48:43.788Z,98165.52
2018-03-07T01:49:50.010Z,98160.77
2018-03-07T01:50:56.201Z,98163.41
2018-03-07T01:52:03.052Z,98160.85
2018-03-07T01:53:09.239Z,98156.55
2018-03-07T01:54:15.603Z,98155.80
2018-03-07T01:55:22.680Z,98157.81
2018-03-07T01:56:28.905Z,98152.17
2018-03-07T01:57:35.163Z,98156.90
2018-03-07T01:58:41.400Z,98156.21
2018-03-07T01:59:47.581Z,98147.08
2018-03-07T02:00:53.452Z,98153.97
2018-03-07T02:01:58.567Z,98157.98
2018-03-07T02:03:04.877Z,98160.67
2018-03-07T02:04:11.120Z,98157.11
2018-03-07T02:05:17.325Z,98152.81
2018-03-07T02:06:23.526Z,98147.64
2018-03-07T02:07:29.715Z,98158.78
2018-03-07T02:08:35.950Z,98154.42
2018-03-07T02:09:42.098Z,98149.54
2018-03-07T02:10:48.312Z,98151.36
2018-03-07T02:11:54.573Z,98147.94
2018-03-07T02:13:00.505Z,98152.55
2018-03-07T02:14:06.738Z,98153.31
2018-03-07T02:15:13.003Z,98148.48
2018-03-07T02:16:19.168Z,98152.60
2018-03-07T02:17:25.393Z,98147.51
2018-03-07T02:18:31.572Z,98153.80
2018-03-07T02:19:38.821Z,98147.43
2018-03-07T02:20:44.765Z,98140.70
2018-03-07T02:21:50.928Z,98146.50
2018-03-07T02:22:57.139Z,98148.33
2018-03-07T02:24:03.300Z,98149.67
2018-03-07T02:25:09.470Z,98147.45
2018-03-07T02:26:15.683Z,98146.92
2018-03-07T02:27:21.885Z,98146.77
2018-03-07T02:28:28.109Z,98153.91
2018-03-07T02:29:34.274Z,98148.53
2018-03-07T02:30:40.487Z,98151.52
2018-03-07T02:31:46.647Z,98148.89
2018-03-07T02:32:52.858Z,98150.97
2018-03-07T02:33:59.076Z,98147.04
2018-03-07T02:35:05.245Z,98151.25
2018-03-07T02:36:22.163Z,98146.51
2018-03-07T02:37:28.039Z,98153.19
2018-03-07T02:38:34.263Z,98158.38
2018-03-07T02:39:40.492Z,98153.84
2018-03-07T02:40:52.614Z,98150.91
2018-03-07T02:41:58.906Z,98153.79
2018-03-07T02:43:05.066Z,98152.97
2018-03-07T02:44:11.226Z,98157.51
2018-03-07T02:45:17.376Z,98158.00
2018-03-07T02:46:23.257Z,98154.08
2018-03-07T02:47:29.464Z,98153.34
2018-03-07T02:48:35.630Z,98153.53
2018-03-07T02:49:41.826Z,98152.23
2018-03-07T02:50:48.099Z,98156.06
2018-03-07T02:51:54.309Z,98151.55
2018-03-07T02:53:00.505Z,98151.39
2018-03-07T02:54:06.722Z,98151.08
2018-03-07T02:55:12.913Z,98153.66
2018-03-07T02:56:19.128Z,98151.68
2018-03-07T02:57:25.292Z,98152.08
2018-03-07T02:58:31.456Z,98154.19
2018-03-07T02:59:37.647Z,98153.53
2018-03-07T03:00:43.875Z,98145.90
2018-03-07T03:01:50.045Z,98146.64
2018-03-07T03:02:56.276Z,98151.52
2018-03-07T03:04:02.466Z,98148.47
2018-03-07T03:05:08.860Z,98155.77
2018-03-07T03:06:14.968Z,98150.73
2018-03-07T03:07:21.173Z,98148.67
2018-03-07T03:08:27.380Z,98156.53
2018-03-07T03:09:33.610Z,98152.90
2018-03-07T03:10:39.833Z,98152.90
2018-03-07T03:11:46.094Z,98153.21
2018-03-07T03:12:52.290Z,98157.98
2018-03-07T03:13:58.472Z,98154.38
2018-03-07T03:15:04.300Z,98149.39
2018-03-07T03:16:10.495Z,98152.79
2018-03-07T03:17:16.720Z,98153.53
2018-03-07T03:18:22.997Z,98153.21
2018-03-07T03:19:29.149Z,98151.31
2018-03-07T03:20:35.329Z,98149.47
2018-03-07T03:21:42.225Z,98151.09
2018-03-07T03:22:48.419Z,98155.82
2018-03-07T03:23:54.613Z,98152.66
2018-03-07T03:25:00.848Z,98154.27
2018-03-07T03:26:13.017Z,98152.34
2018-03-07T03:27:19.172Z,98152.81
2018-03-07T03:28:25.314Z,98150.18
2018-03-07T03:29:31.538Z,98152.20
2018-03-07T03:30:37.707Z,98153.79
2018-03-07T03:31:43.813Z,98151.78
2018-03-07T03:32:51.197Z,98149.78
2018-03-07T03:33:57.354Z,98145.03
2018-03-07T03:35:03.142Z,98152.34
2018-03-07T03:36:09.346Z,98152.20
2018-03-07T03:37:15.493Z,98151.20
2018-03-07T03:38:21.672Z,98147.38
2018-03-07T03:39:27.839Z,98149.76
2018-03-07T03:40:34.207Z,98153.90
2018-03-07T03:41:40.396Z,98149.23
2018-03-07T03:42:46.605Z,98150.55
2018-03-07T03:43:52.759Z,98146.02
2018-03-07T03:44:58.973Z,98151.13
2018-03-07T03:46:04.474Z,98145.33
2018-03-07T03:47:10.671Z,98147.95
2018-03-07T03:48:16.848Z,98148.78
2018-03-07T03:49:22.974Z,98151.02
2018-03-07T03:50:29.159Z,98147.17
2018-03-07T03:51:35.384Z,98147.67
2018-03-07T03:52:41.571Z,98149.05
2018-03-07T03:53:48.898Z,98149.18
2018-03-07T03:54:55.091Z,98146.36
2018-03-07T03:56:01.235Z,98151.60
2018-03-07T03:57:07.574Z,98148.91
2018-03-07T03:58:13.751Z,98152.31
2018-03-07T03:59:19.910Z,98149.89
2018-03-07T04:00:26.118Z,98147.94
2018-03-07T04:01:32.240Z,98148.78
2018-03-07T04:02:38.430Z,98147.47
2018-03-07T04:03:44.594Z,98150.81
2018-03-07T04:04:50.737Z,98149.34
2018-03-07T04:05:56.873Z,98147.02
2018-03-07T04:07:03.001Z,98146.06
2018-03-07T04:08:08.869Z,98149.05
2018-03-07T04:09:14.753Z,98148.63
2018-03-07T04:10:20.964Z,98151.19
2018-03-07T04:11:27.116Z,98146.48
2018-03-07T04:12:33.311Z,98153.37
2018-03-07T04:13:39.542Z,98148.36
2018-03-07T04:14:46.201Z,98151.34
2018-03-07T04:15:53.151Z,98147.47
2018-03-07T04:16:59.309Z,98150.18
2018-03-07T04:18:05.472Z,98152.08
2018-03-07T04:19:11.643Z,98152.79
2018-03-07T04:20:17.639Z,98149.67
2018-03-07T04:21:24.024Z,98150.05
2018-03-07T04:22:30.225Z,98148.73
2018-03-07T04:23:37.438Z,98151.95
2018-03-07T04:24:43.640Z,98147.96
2018-03-07T04:25:50.204Z,98145.46
2018-03-07T04:26:56.380Z,98144.93
2018-03-07T04:28:02.570Z,98143.92
2018-03-07T04:29:08.753Z,98147.44
2018-03-07T04:30:14.935Z,98148.59
2018-03-07T04:31:21.113Z,98149.02
2018-03-07T04:32:27.263Z,98145.03
2018-03-07T04:33:34.313Z,98152.23
2018-03-07T04:34:40.500Z,98150.52
2018-03-07T04:35:46.688Z,98153.90
2018-03-07T04:36:52.833Z,98148.76
2018-03-07T04:37:58.984Z,98145.73
2018-03-07T04:39:04.305Z,98150.39
2018-03-07T04:40:10.201Z,98149.78
2018-03-07T04:41:16.368Z,98151.09
2018-03-07T04:42:22.566Z,98150.55
2018-03-07T04:43:28.801Z,98152.20
2018-03-07T04:44:35.194Z,98156.42
2018-03-07T04:45:41.522Z,98154.05
2018-03-07T04:46:47.884Z,98156.64
2018-03-07T04:47:54.025Z,98156.69
2018-03-07T04:49:00.212Z,98155.84
2018-03-07T04:50:11.463Z,98157.88
2018-03-07T04:51:17.866Z,98153.05
2018-03-07T04:52:24.053Z,98157.27
2018-03-07T04:53:33.148Z,98154.69
2018-03-07T04:54:39.489Z,98156.69
2018-03-07T04:55:45.690Z,98154.61
2018-03-07T04:56:51.866Z,98162.84
2018-03-07T04:57:58.012Z,98164.52
2018-03-07T04:59:04.178Z,98160.70
2018-03-07T05:00:10.349Z,98165.39
2018-03-07T05:01:16.544Z,98162.02
2018-03-07T05:02:22.695Z,98160.12
2018-03-07T05:03:28.859Z,98165.27
2018-03-07T05:04:35.069Z,98166.84
2018-03-07T05:05:41.621Z,98165.10
2018-03-07T05:06:48.045Z,98165.52
2018-03-07T05:07:55.399Z,98163.39
2018-03-07T05:09:01.801Z,98160.83
2018-03-07T05:10:07.708Z,98166.53
2018-03-07T05:11:14.147Z,98163.47
2018-03-07T05:12:21.224Z,98162.41
2018-03-07T05:13:27.609Z,98166.05
2018-03-07T05:14:34.022Z,98164.34
2018-03-07T05:15:40.273Z,98164.41
2018-03-07T05:16:46.497Z,98166.77
2018-03-07T05:17:52.526Z,98166.89
2018-03-07T05:18:59.043Z,98168.69
2018-03-07T05:20:05.259Z,98165.60
2018-03-07T05:21:11.477Z,98174.17
2018-03-07T05:22:18.595Z,98166.73
2018-03-07T05:23:24.873Z,98163.15
2018-03-07T05:24:31.153Z,98168.74
2018-03-07T05:25:37.405Z,98173.52
2018-03-07T05:26:43.512Z,98168.19
2018-03-07T05:27:49.711Z,98172.91
2018-03-07T05:28:55.840Z,98171.19
2018-03-07T05:30:02.007Z,98181.97
2018-03-07T05:31:08.415Z,98175.80
2018-03-07T05:32:14.623Z,98180.20
2018-03-07T05:33:20.807Z,98176.52
2018-03-07T05:34:26.937Z,98179.31
2018-03-07T05:35:33.321Z,98176.48
2018-03-07T05:36:39.483Z,98180.02
2018-03-07T05:37:45.668Z,98175.77
2018-03-07T05:38:51.823Z,98183.78
2018-03-07T05:39:58.020Z,98183.50
2018-03-07T05:41:04.140Z,98179.63
2018-03-07T05:42:10.357Z,98178.23
2018-03-07T05:43:16.608Z,98180.84
2018-03-07T05:44:23.073Z,98181.34
2018-03-07T05:45:29.216Z,98176.52
2018-03-07T05:46:35.360Z,98179.39
2018-03-07T05:47:41.519Z,98178.81
2018-03-07T05:48:47.716Z,98177.44
2018-03-07T05:49:53.872Z,98174.46
2018-03-07T05:51:01.117Z,98177.31
2018-03-07T05:52:07.297Z,98175.17
2018-03-07T05:53:13.495Z,98171.64
2018-03-07T05:54:19.660Z,98184.00
2018-03-07T05:55:25.831Z,98184.20
2018-03-07T05:56:32.948Z,98182.95
2018-03-07T05:57:39.076Z,98180.84
2018-03-07T05:58:45.231Z,98179.95
2018-03-07T05:59:51.446Z,98177.81
2018-03-07T06:00:57.605Z,98186.80
2018-03-07T06:02:03.790Z,98189.57
2018-03-07T06:03:09.925Z,98182.23
2018-03-07T06:04:16.071Z,98182.08
2018-03-07T06:05:22.264Z,98179.16
2018-03-07T06:06:28.449Z,98182.61
2018-03-07T06:07:34.640Z,98184.11
2018-03-07T06:08:40.857Z,98185.30
2018-03-07T06:09:47.008Z,98194.24
2018-03-07T06:10:53.177Z,98188.57
2018-03-07T06:11:59.407Z,98189.41
2018-03-07T06:13:05.582Z,98188.99
2018-03-07T06:14:11.758Z,98192.00
2018-03-07T06:15:17.943Z,98192.98
2018-03-07T06:16:24.117Z,98194.90
2018-03-07T06:17:30.294Z,98200.17
2018-03-07T06:18:36.460Z,98196.14
2018-03-07T06:19:42.664Z,98198.70
2018-03-07T06:20:48.813Z,98201.41
2018-03-07T06:21:54.992Z,98196.16
2018-03-07T06:23:01.157Z,98202.73
2018-03-07T06:24:07.308Z,98201.02
2018-03-07T06:25:13.465Z,98202.81
2018-03-07T06:26:19.649Z,98201.73
2018-03-07T06:27:25.812Z,98199.12
2018-03-07T06:28:32.016Z,98198.14
2018-03-07T06:29:38.176Z,98210.54
2018-03-07T06:30:44.338Z,98200.20
2018-03-07T06:31:50.512Z,98201.80
2018-03-07T06:32:56.696Z,98207.53
2018-03-07T06:34:02.906Z,98204.20
2018-03-07T06:35:09.046Z,98208.06
2018-03-07T06:36:15.158Z,98204.16
2018-03-07T06:37:21.335Z,98206.61
2018-03-07T06:38:27.522Z,98204.20
2018-03-07T06:39:38.855Z,98204.05
2018-03-07T06:40:45.054Z,98205.61
2018-03-07T06:41:51.209Z,98207.91
2018-03-07T06:42:57.415Z,98205.00
2018-03-07T06:44:03.569Z,98205.47
2018-03-07T06:45:09.796Z,98214.25
2018-03-07T06:46:15.967Z,98213.84
2018-03-07T06:47:22.160Z,98206.95
2018-03-07T06:48:28.329Z,98212.09
2018-03-07T06:49:34.518Z,98214.09
2018-03-07T06:50:40.497Z,98213.12
2018-03-07T06:51:46.693Z,98213.14
2018-03-07T06:52:52.912Z,98209.11
2018-03-07T06:53:59.049Z,98214.28
2018-03-07T06:55:04.837Z,98217.13
2018-03-07T06:56:11.052Z,98214.14
2018-03-07T06:57:17.228Z,98215.44
2018-03-07T06:58:23.422Z,98217.52
2018-03-07T06:59:29.540Z,98218.00
2018-03-07T07:00:35.739Z,98219.16
2018-03-07T07:01:41.864Z,98218.73
2018-03-07T07:02:48.976Z,98220.69
2018-03-07T07:03:55.137Z,98223.88
2018-03-07T07:05:01.311Z,98216.86
2018-03-07T07:06:07.434Z,98223.16
2018-03-07T07:07:13.574Z,98224.25
2018-03-07T07:08:19.777Z,98223.25
2018-03-07T07:09:25.924Z,98226.30
2018-03-07T07:10:32.121Z,98228.49
2018-03-07T07:11:38.307Z,98227.46
2018-03-07T07:12:44.736Z,98226.91
2018-03-07T07:13:50.865Z,98228.30
2018-03-07T07:14:56.992Z,98230.75
2018-03-07T07:16:03.126Z,98231.89
2018-03-07T07:17:09.251Z,98233.47
2018-03-07T07:18:15.170Z,98234.95
2018-03-07T07:19:21.336Z,98229.28
2018-03-07T07:20:27.474Z,98232.70
2018-03-07T07:21:33.597Z,98229.69
2018-03-07T07:22:39.473Z,98235.42
2018-03-07T07:23:45.574Z,98240.37
2018-03-07T07:24:51.516Z,98240.20
2018-03-07T07:25:57.651Z,98238.50
2018-03-07T07:27:03.775Z,98239.48
2018-03-07T07:28:09.996Z,98243.20
2018-03-07T07:29:16.116Z,98241.34
2018-03-07T07:30:22.340Z,98240.59
2018-03-07T07:31:28.460Z,98245.27
2018-03-07T07:32:34.609Z,98247.98
2018-03-07T07:33:40.818Z,98248.66
2018-03-07T07:34:46.955Z,98251.70
2018-03-07T07:35:53.083Z,98253.00
2018-03-07T07:36:59.248Z,98257.77
2018-03-07T07:38:05.413Z,98254.42
2018-03-07T07:39:11.541Z,98257.73
2018-03-07T07:40:17.676Z,98258.31
2018-03-07T07:41:23.853Z,98258.06
2018-03-07T07:42:30.004Z,98261.32
2018-03-07T07:43:36.151Z,98264.28
2018-03-07T07:44:42.426Z,98259.50
2018-03-07T07:45:48.601Z,98267.12
2018-03-07T07:46:54.773Z,98258.00
2018-03-07T07:48:00.931Z,98258.51
2018-03-07T07:49:12.216Z,98257.38
2018-03-07T07:50:18.229Z,98265.99
2018-03-07T07:51:24.359Z,98264.19
2018-03-07T07:52:30.339Z,98258.84
2018-03-07T07:53:36.541Z,98261.41
2018-03-07T07:54:42.690Z,98257.27
2018-03-07T07:55:48.841Z,98266.28
2018-03-07T07:56:55.016Z,98261.77
2018-03-07T07:58:01.149Z,98266.25
2018-03-07T07:59:08.442Z,98264.25
2018-03-07T08:00:14.994Z,98264.89
2018-03-07T08:01:21.158Z,98262.64
2018-03-07T08:02:26.966Z,98266.89
2018-03-07T08:03:33.048Z,98265.14
2018-03-07T08:04:39.217Z,98259.66
2018-03-07T08:05:45.376Z,98261.86
2018-03-07T08:06:51.504Z,98264.92
2018-03-07T08:07:57.697Z,98268.07
2018-03-07T08:09:03.369Z,98269.67
2018-03-07T08:10:08.948Z,98268.74
2018-03-07T08:11:15.149Z,98268.99
2018-03-07T08:12:21.299Z,98271.47
2018-03-07T08:13:27.461Z,98278.70
2018-03-07T08:14:33.621Z,98275.01
2018-03-07T08:15:39.782Z,98279.37
2018-03-07T08:16:45.954Z,98277.95
2018-03-07T08:17:52.129Z,98280.61
2018-03-07T08:18:58.268Z,98280.47
2018-03-07T08:20:04.148Z,98280.89
2018-03-07T08:21:10.273Z,98279.78
2018-03-07T08:22:16.155Z,98284.16
2018-03-07T08:23:22.337Z,98285.11
2018-03-07T08:24:28.510Z,98279.39
2018-03-07T08:25:34.683Z,98288.13
2018-03-07T08:26:40.812Z,98277.92
2018-03-07T08:27:46.976Z,98278.73
2018-03-07T08:28:53.120Z,98276.81
2018-03-07T08:29:59.273Z,98278.69
2018-03-07T08:31:05.467Z,98283.48
2018-03-07T08:32:11.704Z,98288.02
2018-03-07T08:33:17.813Z,98287.72
2018-03-07T08:34:23.929Z,98281.88
2018-03-07T08:35:30.447Z,98283.44
2018-03-07T08:36:36.632Z,98286.37
2018-03-07T08:37:42.817Z,98283.48
2018-03-07T08:38:48.935Z,98281.89
2018-03-07T08:39:55.141Z,98284.03
2018-03-07T08:41:01.280Z,98288.28
2018-03-07T08:42:07.441Z,98288.73
2018-03-07T08:43:13.588Z,98289.36
2018-03-07T08:44:19.740Z,98292.98
2018-03-07T08:45:26.006Z,98291.41
2018-03-07T08:46:32.189Z,98295.78
2018-03-07T08:47:38.370Z,98294.64
2018-03-07T08:48:44.510Z,98297.14
2018-03-07T08:49:50.672Z,98303.44
2018-03-07T08:50:59.889Z,98293.81
2018-03-07T08:52:05.780Z,98296.89
2018-03-07T08:53:11.990Z,98297.28
2018-03-07T08:54:18.155Z,98295.29
2018-03-07T08:55:24.546Z,98303.64
2018-03-07T08:56:30.702Z,98297.62
2018-03-07T08:57:36.859Z,98309.09
2018-03-07T08:58:43.039Z,98303.06
2018-03-07T08:59:49.253Z,98299.45
2018-03-07T09:00:55.379Z,98302.67
2018-03-07T09:02:01.529Z,98301.64
2018-03-07T09:03:07.756Z,98299.73
2018-03-07T09:04:13.912Z,98300.39
2018-03-07T09:05:20.081Z,98301.17
2018-03-07T09:06:26.196Z,98301.20
2018-03-07T09:07:32.336Z,98301.80
2018-03-07T09:08:38.454Z,98304.98
2018-03-07T09:09:44.604Z,98298.88
2018-03-07T09:10:50.773Z,98301.64
2018-03-07T09:11:57.738Z,98305.24
2018-03-07T09:13:03.959Z,98303.69
2018-03-07T09:14:10.079Z,98297.62
2018-03-07T09:15:16.194Z,98303.39
2018-03-07T09:16:22.367Z,98305.11
2018-03-07T09:17:28.471Z,98301.64
2018-03-07T09:18:34.617Z,98297.38
2018-03-07T09:19:40.723Z,98308.25
2018-03-07T09:20:46.893Z,98300.84
2018-03-07T09:21:53.073Z,98303.47
2018-03-07T09:22:59.224Z,98309.58
2018-03-07T09:24:05.372Z,98312.35
2018-03-07T09:25:17.377Z,98314.98
2018-03-07T09:26:23.476Z,98313.67
2018-03-07T09:27:29.629Z,98317.82
2018-03-07T09:28:35.798Z,98315.47
2018-03-07T09:29:41.900Z,98316.78
2018-03-07T09:30:48.009Z,98313.28
2018-03-07T09:31:54.179Z,98313.84
2018-03-07T09:33:00.301Z,98324.25
2018-03-07T09:34:06.482Z,98324.76
2018-03-07T09:35:12.594Z,98321.14
2018-03-07T09:36:18.748Z,98320.97
2018-03-07T09:37:24.752Z,98328.48
2018-03-07T09:38:30.930Z,98323.05
2018-03-07T09:39:37.030Z,98322.70
2018-03-07T09:40:43.181Z,98322.20
2018-03-07T09:41:49.301Z,98320.31
2018-03-07T09:42:55.457Z,98328.33
2018-03-07T09:44:01.633Z,98324.99
2018-03-07T09:45:07.821Z,98331.73
2018-03-07T09:46:14.213Z,98327.02
2018-03-07T09:47:20.323Z,98332.61
2018-03-07T09:48:26.446Z,98332.72
2018-03-07T09:49:32.624Z,98335.61
2018-03-07T09:50:38.767Z,98329.80
2018-03-07T09:51:44.874Z,98338.28
2018-03-07T09:52:50.981Z,98336.79
2018-03-07T09:53:57.140Z,98336.99
2018-03-07T09:55:03.253Z,98333.97
2018-03-07T09:56:09.110Z,98339.30
2018-03-07T09:57:15.364Z,98333.33
2018-03-07T09:58:21.729Z,98337.75
2018-03-07T09:59:27.825Z,98329.24
2018-03-07T10:00:33.935Z,98333.15
2018-03-07T10:01:40.840Z,98332.84
2018-03-07T10:02:46.956Z,98334.80
2018-03-07T10:03:53.119Z,98334.63
2018-03-07T10:04:59.247Z,98332.48
2018-03-07T10:06:05.079Z,98335.16
2018-03-07T10:07:11.172Z,98331.68
2018-03-07T10:08:17.316Z,98335.30
2018-03-07T10:09:23.426Z,98336.00
2018-03-07T10:10:29.534Z,98336.61
2018-03-07T10:11:35.666Z,98334.45
2018-03-07T10:12:41.471Z,98337.58
2018-03-07T10:13:47.629Z,98334.27
2018-03-07T10:14:53.791Z,98334.58
2018-03-07T10:16:00.082Z,98337.31
2018-03-07T10:17:06.277Z,98332.13
2018-03-07T10:18:12.451Z,98334.17
2018-03-07T10:19:18.626Z,98333.77
2018-03-07T10:20:24.737Z,98335.14
2018-03-07T10:21:30.873Z,98338.13
2018-03-07T10:22:36.977Z,98336.84
2018-03-07T10:23:48.245Z,98328.81
2018-03-07T10:24:54.390Z,98333.30
2018-03-07T10:26:00.312Z,98332.89
2018-03-07T10:27:06.431Z,98334.34
2018-03-07T10:28:12.609Z,98336.95
2018-03-07T10:29:18.549Z,98333.45
2018-03-07T10:30:24.696Z,98335.27
2018-03-07T10:31:30.826Z,98338.91
2018-03-07T10:32:36.956Z,98342.66
2018-03-07T10:33:43.149Z,98345.01
2018-03-07T10:34:49.310Z,98343.81
2018-03-07T10:35:55.444Z,98342.78
2018-03-07T10:37:01.617Z,98342.52
2018-03-07T10:38:07.794Z,98340.69
2018-03-07T10:39:13.979Z,98339.66
2018-03-07T10:40:21.064Z,98335.14
2018-03-07T10:41:27.200Z,98338.52
2018-03-07T10:42:35.764Z,98343.60
2018-03-07T10:43:41.920Z,98341.00
2018-03-07T10:44:48.405Z,98344.58
2018-03-07T10:45:54.516Z,98346.48
2018-03-07T10:47:00.873Z,98348.42
2018-03-07T10:48:07.027Z,98346.91
2018-03-07T10:49:13.160Z,98351.10
2018-03-07T10:50:19.271Z,98355.39
2018-03-07T10:51:25.412Z,98355.97
2018-03-07T10:52:31.577Z,98359.03
2018-03-07T10:53:37.753Z,98358.19
2018-03-07T10:54:43.955Z,98365.14
2018-03-07T10:55:50.115Z,98363.56
2018-03-07T10:56:56.240Z,98372.22
2018-03-07T10:58:02.426Z,98370.53
2018-03-07T10:59:08.540Z,98371.16
2018-03-07T11:00:14.503Z,98373.48
2018-03-07T11:01:20.353Z,98372.15
2018-03-07T11:02:26.474Z,98373.14
2018-03-07T11:03:32.624Z,98375.21
2018-03-07T11:04:38.723Z,98379.71
2018-03-07T11:05:44.834Z,98374.37
2018-03-07T11:06:50.997Z,98375.35
2018-03-07T11:07:57.121Z,98375.91
2018-03-07T11:09:03.248Z,98376.33
2018-03-07T11:10:09.396Z,98379.36
2018-03-07T11:11:15.564Z,98385.58
2018-03-07T11:12:21.729Z,98380.41
2018-03-07T11:13:27.893Z,98386.88
2018-03-07T11:14:34.049Z,98378.94
2018-03-07T11:15:40.186Z,98376.51
2018-03-07T11:16:46.336Z,98380.01
2018-03-07T11:17:52.490Z,98374.00
2018-03-07T11:18:58.656Z,98373.64
2018-03-07T11:20:04.464Z,98370.79
2018-03-07T11:21:10.680Z,98376.38
2018-03-07T11:22:16.788Z,98378.48
2018-03-07T11:23:22.899Z,98373.39
2018-03-07T11:24:29.052Z,98378.45
2018-03-07T11:25:38.098Z,98371.56
2018-03-07T11:26:44.212Z,98373.84
2018-03-07T11:27:50.344Z,98377.81
2018-03-07T11:28:56.517Z,98368.22
2018-03-07T11:30:02.708Z,98372.09
2018-03-07T11:31:08.917Z,98367.70
2018-03-07T11:32:15.107Z,98373.45
2018-03-07T11:33:21.303Z,98372.23
2018-03-07T11:34:27.518Z,98378.57
2018-03-07T11:35:33.836Z,98365.45
2018-03-07T11:36:39.965Z,98374.29
2018-03-07T11:37:46.146Z,98370.14
2018-03-07T11:38:52.385Z,98374.50
2018-03-07T11:39:58.506Z,98374.26
2018-03-07T11:41:04.328Z,98378.02
2018-03-07T11:42:10.532Z,98376.16
2018-03-07T11:43:16.729Z,98378.13
2018-03-07T11:44:22.895Z,98380.98
2018-03-07T11:45:29.005Z,98385.80
2018-03-07T11:46:35.151Z,98378.48
2018-03-07T11:47:41.321Z,98380.48
2018-03-07T11:48:47.498Z,98380.98
2018-03-07T11:49:53.641Z,98385.55
2018-03-07T11:50:59.834Z,98386.08
2018-03-07T11:52:06.019Z,98385.16
2018-03-07T11:53:11.875Z,98385.48
2018-03-07T11:54:18.088Z,98376.33
2018-03-07T11:55:24.214Z,98380.63
2018-03-07T11:56:30.391Z,98377.91
2018-03-07T11:57:36.543Z,98381.50
2018-03-07T11:58:42.351Z,98382.06
2018-03-07T11:59:48.533Z,98382.94
2018-03-07T12:00:54.697Z,98387.70
2018-03-07T12:02:00.931Z,98383.69
2018-03-07T12:03:07.057Z,98384.63
2018-03-07T12:04:13.226Z,98382.63
2018-03-07T12:05:19.364Z,98388.64
2018-03-07T12:06:25.588Z,98386.33
2018-03-07T12:07:31.754Z,98387.80
2018-03-07T12:08:37.554Z,98389.56
2018-03-07T12:09:43.699Z,98390.83
2018-03-07T12:10:49.853Z,98383.80
2018-03-07T12:11:56.007Z,98394.52
2018-03-07T12:13:02.148Z,98399.05
2018-03-07T12:14:08.602Z,98396.19
2018-03-07T12:15:14.783Z,98390.29
2018-03-07T12:16:20.958Z,98395.88
2018-03-07T12:17:27.135Z,98384.95
2018-03-07T12:18:33.300Z,98385.11
2018-03-07T12:19:39.427Z,98386.53
2018-03-07T12:20:45.638Z,98383.97
2018-03-07T12:21:51.862Z,98384.53
2018-03-07T12:22:58.000Z,98387.73
2018-03-07T12:24:04.181Z,98382.31
2018-03-07T12:25:10.045Z,98377.31
2018-03-07T12:26:16.249Z,98376.02
2018-03-07T12:27:22.399Z,98380.34
2018-03-07T12:28:29.543Z,98379.32
2018-03-07T12:29:35.711Z,98380.06
2018-03-07T12:30:41.927Z,98382.98
2018-03-07T12:31:48.160Z,98386.98
2018-03-07T12:32:54.404Z,98389.28
2018-03-07T12:34:00.831Z,98385.06
2018-03-07T12:35:06.993Z,98388.58
2018-03-07T12:36:13.201Z,98388.12
2018-03-07T12:37:19.355Z,98388.54
2018-03-07T12:38:25.561Z,98391.03
2018-03-07T12:39:31.712Z,98386.07
2018-03-07T12:40:37.887Z,98394.19
2018-03-07T12:41:44.126Z,98393.41
2018-03-07T12:42:50.284Z,98402.63
2018-03-07T12:43:56.453Z,98399.31
2018-03-07T12:45:02.631Z,98400.64
2018-03-07T12:46:08.544Z,98400.36
2018-03-07T12:47:14.726Z,98408.99
2018-03-07T12:48:20.906Z,98404.03
2018-03-07T12:49:27.095Z,98404.06
2018-03-07T12:50:33.306Z,98395.73
2018-03-07T12:51:39.165Z,98403.16
2018-03-07T12:52:45.339Z,98399.48
2018-03-07T12:53:51.577Z,98398.23
2018-03-07T12:54:57.814Z,98399.58
2018-03-07T12:56:04.015Z,98394.98
2018-03-07T12:57:10.289Z,98397.55
2018-03-07T12:58:16.452Z,98401.45